Time;durP1;ratioP1;P1;durP2;ratioP2;P2;SDS_P1;SDS_P2;PMS_P1;PMS_P2;Temp;Humidity;BMP_temperature;BMP_pressure;BME280_temperature;BME280_humidity;BME280_pressure;Samples;Min_cycle;Max_cycle;Signal;HPM_P1;HPM_P2
2023/07/08 00:01:59;;;;;;;11.07;7.03;;;22.60;59.90;;;;;;6228085;28;20045;-78
2023/07/08 00:05:02;;;;;;;10.55;6.85;;;22.70;59.30;;;;;;6229249;28;20054;-79
2023/07/08 00:08:04;;;;;;;12.15;6.30;;;22.90;58.80;;;;;;6228319;28;20052;-78
2023/07/08 00:11:11;;;;;;;14.50;7.15;;;23.00;57.70;;;;;;6228723;28;20050;-78
2023/07/08 00:14:12;;;;;;;12.40;6.78;;;23.00;57.00;;;;;;6228611;28;20041;-77
2023/07/08 00:17:14;;;;;;;12.80;6.43;;;23.10;56.50;;;;;;6228712;28;20057;-79
2023/07/08 00:20:20;;;;;;;9.18;7.13;;;23.40;56.50;;;;;;6227919;28;20042;-79
2023/07/08 00:23:22;;;;;;;10.23;6.25;;;23.40;55.40;;;;;;6228239;28;20394;-79
2023/07/08 00:26:27;;;;;;;11.07;6.65;;;23.50;55.20;;;;;;6227840;28;20042;-79
2023/07/08 00:29:28;;;;;;;10.85;6.53;;;23.50;55.30;;;;;;6238452;28;20049;-78
2023/07/08 00:32:30;;;;;;;8.70;6.88;;;23.40;56.30;;;;;;6253784;28;20045;-78
2023/07/08 00:35:35;;;;;;;14.02;7.18;;;23.20;57.40;;;;;;6253015;28;20523;-78
2023/07/08 00:38:37;;;;;;;10.02;6.40;;;23.10;57.40;;;;;;6252705;28;20037;-79
2023/07/08 00:41:40;;;;;;;9.75;6.65;;;23.10;57.60;;;;;;6252400;28;20052;-79
2023/07/08 00:44:44;;;;;;;12.27;6.43;;;23.10;56.30;;;;;;6252581;28;20052;-77
2023/07/08 00:47:46;;;;;;;13.18;7.45;;;23.10;55.60;;;;;;6250233;28;20183;-78
2023/07/08 00:50:49;;;;;;;8.07;6.20;;;23.20;55.60;;;;;;6252129;28;20058;-77
2023/07/08 00:53:51;;;;;;;13.07;6.28;;;23.20;55.60;;;;;;6252571;28;20393;-78
2023/07/08 00:56:56;;;;;;;8.98;6.45;;;23.10;55.70;;;;;;6253864;28;20533;-78
2023/07/08 01:00:03;;;;;;;9.90;5.70;;;23.10;56.00;;;;;;6252363;28;20060;-78
2023/07/08 01:03:04;;;;;;;13.23;6.78;;;23.00;56.20;;;;;;6252448;28;20057;-78
2023/07/08 01:06:07;;;;;;;9.40;7.70;;;22.90;56.80;;;;;;6252546;28;20056;-78
2023/07/08 01:09:12;;;;;;;7.97;6.07;;;22.80;57.10;;;;;;6252648;28;20053;-79
2023/07/08 01:12:19;;;;;;;14.20;6.70;;;22.70;57.80;;;;;;6250860;28;20418;-79
2023/07/08 01:15:25;;;;;;;10.80;6.40;;;22.60;58.50;;;;;;6252822;28;20049;-78
2023/07/08 01:18:27;;;;;;;11.25;7.68;;;22.40;59.00;;;;;;6251430;28;20072;-79
2023/07/08 01:21:34;;;;;;;12.32;6.70;;;22.20;59.50;;;;;;6251622;28;20064;-79
2023/07/08 01:24:39;;;;;;;9.73;6.10;;;22.10;60.10;;;;;;6251319;28;20050;-79
2023/07/08 01:27:45;;;;;;;8.15;6.45;;;22.00;60.70;;;;;;6251081;28;20052;-79
2023/07/08 01:30:47;;;;;;;9.10;6.07;;;21.80;61.50;;;;;;6249841;28;20516;-77
2023/07/08 01:33:49;;;;;;;9.52;6.35;;;21.70;61.90;;;;;;6250039;28;20045;-79
2023/07/08 01:36:54;;;;;;;9.02;6.10;;;21.60;62.60;;;;;;6250280;28;20392;-79
2023/07/08 01:39:57;;;;;;;13.80;6.30;;;21.40;63.60;;;;;;6249427;28;20048;-79
2023/07/08 01:43:00;;;;;;;8.80;6.13;;;21.20;64.60;;;;;;6250088;28;20064;-78
2023/07/08 01:46:03;;;;;;;8.63;6.13;;;21.00;65.50;;;;;;6251854;28;20041;-79
2023/07/08 01:49:04;;;;;;;14.88;7.93;;;20.70;66.20;;;;;;6252786;28;20045;-78
2023/07/08 01:52:08;;;;;;;10.68;7.55;;;20.60;66.90;;;;;;6251705;28;20061;-76
2023/07/08 01:55:11;;;;;;;12.00;7.35;;;20.40;67.50;;;;;;6250592;28;20059;-78
2023/07/08 01:58:12;;;;;;;9.95;6.50;;;20.30;68.20;;;;;;6249344;28;20048;-79
2023/07/08 02:01:14;;;;;;;11.25;7.07;;;20.20;68.90;;;;;;6250307;28;20049;-79
2023/07/08 02:04:16;;;;;;;10.60;7.30;;;20.10;69.40;;;;;;6249447;28;20052;-78
2023/07/08 02:07:17;;;;;;;10.88;6.55;;;19.90;69.90;;;;;;6249259;28;20045;-78
2023/07/08 02:10:21;;;;;;;10.27;6.45;;;19.80;70.40;;;;;;6248452;28;20045;-78
2023/07/08 02:13:24;;;;;;;9.30;6.40;;;19.80;71.20;;;;;;6249274;28;20053;-79
2023/07/08 02:16:26;;;;;;;12.82;6.88;;;19.70;71.70;;;;;;6248734;28;20140;-78
2023/07/08 02:19:28;;;;;;;9.48;6.50;;;19.60;72.10;;;;;;6249022;28;20057;-77
2023/07/08 02:22:30;;;;;;;8.98;6.55;;;19.50;72.70;;;;;;6249533;28;20038;-79
2023/07/08 02:25:33;;;;;;;8.40;6.22;;;19.30;73.00;;;;;;6248486;28;20408;-79
2023/07/08 02:28:34;;;;;;;11.05;6.60;;;19.30;73.40;;;;;;6248895;28;20386;-79
2023/07/08 02:31:36;;;;;;;12.00;6.20;;;19.20;73.70;;;;;;6248310;28;20048;-78
2023/07/08 02:34:38;;;;;;;11.63;6.55;;;19.20;74.30;;;;;;6248794;28;20049;-78
2023/07/08 02:37:40;;;;;;;10.30;6.88;;;19.10;75.00;;;;;;6248369;28;20041;-79
2023/07/08 02:40:44;;;;;;;12.05;7.07;;;19.10;75.80;;;;;;6250700;28;20049;-78
2023/07/08 02:43:46;;;;;;;13.07;7.18;;;19.00;76.40;;;;;;6256605;28;20052;-79
2023/07/08 02:46:48;;;;;;;9.77;6.63;;;19.00;76.70;;;;;;6251305;28;20061;-80
2023/07/08 02:49:50;;;;;;;10.90;7.60;;;19.00;77.10;;;;;;6249292;28;20475;-78
2023/07/08 02:52:51;;;;;;;11.50;7.35;;;18.90;77.60;;;;;;6250830;28;20050;-78
2023/07/08 02:55:55;;;;;;;7.97;6.75;;;18.90;78.10;;;;;;6250217;28;20060;-79
2023/07/08 02:58:56;;;;;;;11.40;6.20;;;18.90;78.60;;;;;;6248873;28;20061;-79
2023/07/08 03:01:58;;;;;;;8.68;6.30;;;18.90;80.00;;;;;;6251851;28;20052;-78
2023/07/08 03:05:00;;;;;;;8.80;6.55;;;18.80;79.80;;;;;;6258566;28;20068;-79
2023/07/08 03:08:02;;;;;;;9.02;6.50;;;18.80;80.20;;;;;;6256975;28;20543;-77
2023/07/08 03:11:07;;;;;;;12.65;7.18;;;18.70;80.70;;;;;;6257352;28;20050;-79
2023/07/08 03:14:09;;;;;;;8.75;6.72;;;18.70;81.30;;;;;;6257662;28;20046;-79
2023/07/08 03:17:11;;;;;;;11.82;6.50;;;18.60;81.70;;;;;;6258647;28;20065;-79
2023/07/08 03:20:13;;;;;;;8.98;7.93;;;18.60;82.40;;;;;;6258115;28;20041;-77
2023/07/08 03:23:15;;;;;;;8.90;7.15;;;18.60;82.60;;;;;;6256943;28;20136;-78
2023/07/08 03:26:20;;;;;;;21.15;8.65;;;18.60;83.00;;;;;;6256512;28;20140;-78
2023/07/08 03:29:22;;;;;;;10.10;7.25;;;18.60;83.60;;;;;;6256148;28;20056;-78
2023/07/08 03:32:25;;;;;;;9.70;6.82;;;18.50;84.10;;;;;;6256962;28;20496;-78
2023/07/08 03:35:27;;;;;;;16.95;8.55;;;18.60;84.70;;;;;;6258855;28;20079;-79
2023/07/08 03:38:29;;;;;;;11.10;7.10;;;18.60;85.10;;;;;;6259652;28;20049;-79
2023/07/08 03:41:32;;;;;;;10.77;7.72;;;18.60;85.70;;;;;;6251912;28;20053;-80
2023/07/08 03:44:33;;;;;;;9.32;7.15;;;18.60;86.30;;;;;;6248789;28;20127;-78
2023/07/08 03:47:35;;;;;;;12.48;7.32;;;18.60;86.90;;;;;;6246498;28;20524;-79
2023/07/08 03:50:37;;;;;;;12.52;8.15;;;18.50;87.50;;;;;;6247466;28;20045;-79
2023/07/08 03:53:38;;;;;;;9.00;7.43;;;18.60;87.90;;;;;;6247765;28;20051;-80
2023/07/08 03:56:42;;;;;;;12.35;8.07;;;18.70;88.30;;;;;;6248277;28;20121;-79
2023/07/08 03:59:44;;;;;;;10.73;7.68;;;18.70;88.80;;;;;;6248357;28;20045;-79
2023/07/08 04:02:47;;;;;;;9.43;6.82;;;18.70;89.40;;;;;;6250268;28;20046;-78
2023/07/08 04:05:48;;;;;;;14.32;9.65;;;18.90;90.00;;;;;;6251887;28;20050;-78
2023/07/08 04:08:50;;;;;;;10.32;7.72;;;18.90;89.90;;;;;;6256725;28;20076;-78
2023/07/08 04:12:11;;;;;;;10.10;6.40;;;19.10;90.00;;;;;;6254968;28;20124;-80
2023/07/08 04:15:14;;;;;;;11.02;8.07;;;19.20;90.10;;;;;;6238989;28;20049;-79
2023/07/08 04:18:16;;;;;;;10.80;7.07;;;19.30;90.30;;;;;;6251817;28;20042;-79
2023/07/08 04:21:17;;;;;;;11.45;6.43;;;19.40;90.50;;;;;;6251832;28;20133;-79
2023/07/08 04:24:22;;;;;;;12.35;7.88;;;19.50;90.60;;;;;;6242730;28;20053;-80
2023/07/08 04:27:28;;;;;;;12.52;8.10;;;19.70;90.70;;;;;;6250755;28;20064;-79
2023/07/08 04:30:30;;;;;;;14.77;7.95;;;19.80;90.60;;;;;;6252052;28;20053;-79
2023/07/08 04:33:31;;;;;;;11.60;7.35;;;19.90;90.50;;;;;;6246261;28;20053;-78
2023/07/08 04:36:34;;;;;;;9.13;6.93;;;20.00;90.40;;;;;;6247396;28;20052;-79
2023/07/08 04:39:35;;;;;;;9.57;7.63;;;20.20;90.30;;;;;;6245536;28;20056;-78
2023/07/08 04:42:38;;;;;;;12.32;8.20;;;20.40;90.10;;;;;;6246365;28;20046;-79
2023/07/08 04:45:42;;;;;;;12.77;8.05;;;20.60;90.00;;;;;;6246100;28;20516;-79
2023/07/08 04:48:45;;;;;;;12.98;8.57;;;20.70;89.70;;;;;;6250703;28;20491;-78
2023/07/08 04:51:47;;;;;;;16.65;7.78;;;20.90;89.20;;;;;;6250607;28;20056;-79
2023/07/08 04:54:48;;;;;;;10.57;8.63;;;21.00;89.40;;;;;;6250831;28;20049;-79
2023/07/08 04:57:52;;;;;;;13.95;8.05;;;21.20;89.20;;;;;;6250527;28;20064;-78
2023/07/08 05:00:53;;;;;;;13.05;8.18;;;21.50;88.80;;;;;;6251661;28;20057;-79
2023/07/08 05:03:55;;;;;;;11.15;8.10;;;21.90;88.40;;;;;;6250767;28;20052;-79
2023/07/08 05:06:57;;;;;;;15.23;9.05;;;22.30;87.30;;;;;;6250939;28;20049;-79
2023/07/08 05:09:59;;;;;;;14.38;9.02;;;22.70;84.80;;;;;;6250547;28;20042;-80
2023/07/08 05:13:02;;;;;;;11.52;8.27;;;22.80;82.60;;;;;;6251384;28;20065;-80
2023/07/08 05:16:03;;;;;;;12.90;8.15;;;22.90;80.00;;;;;;6251134;28;20137;-78
2023/07/08 05:19:05;;;;;;;12.77;8.48;;;22.90;78.60;;;;;;6249979;28;20140;-80
2023/07/08 05:22:10;;;;;;;10.38;8.15;;;23.10;77.60;;;;;;6240301;28;20045;-80
2023/07/08 05:25:12;;;;;;;13.15;8.75;;;23.60;76.50;;;;;;6250209;28;20045;-80
2023/07/08 05:28:15;;;;;;;11.68;8.75;;;24.00;75.20;;;;;;6249906;28;20045;-79
2023/07/08 05:31:17;;;;;;;14.85;10.05;;;24.30;73.50;;;;;;6249986;28;20125;-80
2023/07/08 05:34:18;;;;;;;13.48;7.60;;;24.60;72.20;;;;;;6250716;28;20048;-79
2023/07/08 05:37:24;;;;;;;11.50;9.32;;;25.10;71.00;;;;;;6251076;28;20276;-80
2023/07/08 05:40:26;;;;;;;10.90;8.55;;;25.90;69.70;;;;;;6250444;28;20033;-80
2023/07/08 05:43:29;;;;;;;12.88;7.57;;;27.00;67.50;;;;;;6249619;28;20057;-80
2023/07/08 05:46:31;;;;;;;7.13;6.43;;;28.10;64.80;;;;;;6250611;28;20061;-80
2023/07/08 05:49:32;;;;;;;7.43;5.78;;;28.70;62.50;;;;;;6249661;28;20042;-80
2023/07/08 05:52:34;;;;;;;10.50;5.93;;;29.20;60.50;;;;;;6251017;28;20049;-80
2023/07/08 05:55:36;;;;;;;11.13;6.55;;;29.40;59.10;;;;;;6250386;28;20056;-80
2023/07/08 05:58:39;;;;;;;14.00;5.88;;;29.20;58.40;;;;;;6249208;28;20467;-80
2023/07/08 06:01:41;;;;;;;9.75;6.28;;;28.60;57.90;;;;;;6250182;28;20049;-80
2023/07/08 06:04:43;;;;;;;9.95;6.13;;;27.60;58.60;;;;;;6250825;28;20061;-80
2023/07/08 06:07:45;;;;;;;7.50;5.80;;;26.90;59.80;;;;;;6249201;28;20041;-80
2023/07/08 06:10:48;;;;;;;9.68;5.35;;;26.60;60.70;;;;;;6248088;28;20127;-80
2023/07/08 06:13:51;;;;;;;7.72;5.78;;;26.40;61.20;;;;;;6221907;28;20053;-80
2023/07/08 06:20:14;;;;;;;9.73;4.68;;;27.10;61.10;;;;;;6225970;28;20037;-81
2023/07/08 06:23:16;;;;;;;7.13;4.72;;;27.70;60.80;;;;;;6240850;28;20065;-81
2023/07/08 06:26:18;;;;;;;8.82;5.60;;;28.60;60.10;;;;;;6238399;28;20064;-81
2023/07/08 06:29:21;;;;;;;7.97;4.95;;;29.80;58.70;;;;;;6236605;28;20048;-82
2023/07/08 06:32:22;;;;;;;11.52;4.93;;;30.90;56.90;;;;;;6237042;28;20045;-81
2023/07/08 06:35:24;;;;;;;6.10;4.18;;;31.30;56.00;;;;;;6238212;28;20049;-80
2023/07/08 06:38:26;;;;;;;8.13;4.43;;;31.10;56.00;;;;;;6235676;28;20045;-80
2023/07/08 06:41:27;;;;;;;6.68;3.80;;;30.60;56.60;;;;;;6233927;28;20053;-80
2023/07/08 06:44:31;;;;;;;5.38;4.38;;;29.60;57.90;;;;;;6235967;28;20060;-81
2023/07/08 06:47:32;;;;;;;7.82;3.78;;;28.90;59.90;;;;;;6236622;28;20062;-81
2023/07/08 06:50:34;;;;;;;6.40;3.85;;;28.60;61.10;;;;;;6239108;28;20049;-81
2023/07/08 06:53:36;;;;;;;6.15;4.32;;;28.50;61.90;;;;;;6236776;28;20053;-81
2023/07/08 06:56:38;;;;;;;3.40;3.00;;;28.40;62.30;;;;;;6236160;28;20056;-80
2023/07/08 06:59:41;;;;;;;5.55;2.88;;;28.30;62.80;;;;;;6237104;28;20045;-79
2023/07/08 07:02:43;;;;;;;4.07;3.20;;;28.00;63.50;;;;;;6236542;28;20041;-81
2023/07/08 07:05:45;;;;;;;4.82;3.38;;;27.70;64.10;;;;;;6237549;28;20057;-81
2023/07/08 07:08:46;;;;;;;5.55;3.90;;;27.50;64.50;;;;;;6241095;28;20042;-81
2023/07/08 07:11:48;;;;;;;8.07;4.00;;;27.30;65.00;;;;;;6238325;28;20047;-80
2023/07/08 07:14:52;;;;;;;9.35;3.92;;;27.00;65.60;;;;;;6236394;28;20056;-81
2023/07/08 07:17:54;;;;;;;4.05;3.58;;;26.80;66.10;;;;;;6239875;28;20136;-81
2023/07/08 07:20:56;;;;;;;5.55;3.97;;;26.50;66.70;;;;;;6240083;28;20139;-79
2023/07/08 07:23:58;;;;;;;6.43;3.15;;;26.60;67.30;;;;;;6245084;28;20417;-81
2023/07/08 07:26:59;;;;;;;5.32;3.15;;;26.50;67.40;;;;;;6245677;28;20049;-81
2023/07/08 07:30:03;;;;;;;7.82;3.00;;;26.50;67.40;;;;;;6243310;28;20053;-81
2023/07/08 07:33:05;;;;;;;4.63;3.25;;;26.50;67.70;;;;;;6244082;28;20057;-81
2023/07/08 07:36:07;;;;;;;3.35;2.78;;;26.50;67.70;;;;;;6244119;28;23047;-80
2023/07/08 07:39:08;;;;;;;3.42;2.22;;;26.70;67.80;;;;;;6241011;28;20425;-80
2023/07/08 07:42:11;;;;;;;5.18;3.03;;;26.90;67.90;;;;;;6243375;28;20053;-80
2023/07/08 07:45:15;;;;;;;6.55;3.85;;;27.00;66.80;;;;;;6240668;28;20049;-81
2023/07/08 07:48:16;;;;;;;5.30;2.70;;;27.20;66.20;;;;;;6239415;28;20057;-79
2023/07/08 07:51:18;;;;;;;7.38;2.88;;;27.30;66.00;;;;;;6233325;28;20042;-80
2023/07/08 07:54:20;;;;;;;5.50;2.58;;;27.60;65.40;;;;;;6239161;28;20053;-81
2023/07/08 07:57:22;;;;;;;2.88;1.92;;;27.70;64.50;;;;;;6243316;28;20053;-82
2023/07/08 08:00:25;;;;;;;3.97;2.25;;;27.80;63.70;;;;;;6237501;28;20405;-80
2023/07/08 08:03:26;;;;;;;5.53;2.30;;;27.90;63.60;;;;;;6235155;28;20060;-81
2023/07/08 08:06:28;;;;;;;3.10;2.25;;;28.20;62.70;;;;;;6238020;28;20046;-80
2023/07/08 08:09:30;;;;;;;6.00;2.92;;;28.40;61.80;;;;;;6231892;28;20049;-80
2023/07/08 08:12:32;;;;;;;6.03;2.20;;;28.40;60.40;;;;;;6236076;28;20449;-80
2023/07/08 08:15:35;;;;;;;3.72;2.15;;;28.50;59.80;;;;;;6236822;28;20064;-79
2023/07/08 08:18:36;;;;;;;3.75;2.20;;;28.60;59.20;;;;;;6233608;28;20080;-81
2023/07/08 08:21:38;;;;;;;5.93;1.92;;;28.70;58.40;;;;;;6237130;28;20053;-80
2023/07/08 08:24:40;;;;;;;4.47;2.17;;;29.00;57.60;;;;;;6240377;28;20515;-80
2023/07/08 08:27:42;;;;;;;8.02;2.60;;;29.10;56.90;;;;;;6239025;28;20053;-79
2023/07/08 08:30:47;;;;;;;2.97;1.60;;;29.00;56.60;;;;;;6240800;28;20045;-80
2023/07/08 08:33:49;;;;;;;4.50;2.22;;;29.10;56.50;;;;;;6238952;28;20045;-79
2023/07/08 08:36:51;;;;;;;8.27;1.73;;;29.20;56.50;;;;;;6241593;28;20990;-80
2023/07/08 08:39:52;;;;;;;4.43;2.05;;;29.40;56.10;;;;;;6242064;28;20389;-80
2023/07/08 08:43:00;;;;;;;4.18;1.98;;;29.70;55.80;;;;;;6241072;28;20061;-80
2023/07/08 08:46:05;;;;;;;;;;;29.90;55.20;;;;;;6237906;28;20044;-80
2023/07/08 08:49:19;;;;;;;3.03;1.63;;;30.10;55.00;;;;;;6244159;28;19925;-81
2023/07/08 08:52:21;;;;;;;3.05;1.63;;;30.00;54.60;;;;;;6243801;28;20045;-80
2023/07/08 08:55:24;;;;;;;4.60;2.15;;;30.20;53.10;;;;;;6246180;28;20041;-78
2023/07/08 08:58:37;;;;;;;3.92;2.33;;;31.10;52.20;;;;;;6239470;28;20115;-80
2023/07/08 09:01:40;;;;;;;2.03;1.30;;;31.80;50.50;;;;;;6241278;28;20057;-81
2023/07/08 09:04:42;;;;;;;6.47;2.10;;;31.60;49.30;;;;;;6241314;28;20068;-80
2023/07/08 09:07:50;;;;;;;4.35;1.80;;;31.30;49.00;;;;;;6241060;28;20413;-80
2023/07/08 09:10:58;;;;;;;3.08;1.70;;;31.00;49.40;;;;;;6239797;28;20062;-81
2023/07/08 09:14:00;;;;;;;8.52;2.13;;;30.90;49.40;;;;;;6238042;28;20060;-80
2023/07/08 09:17:18;;;;;;;5.80;2.88;;;30.90;49.80;;;;;;6239469;28;20065;-80
2023/07/08 09:20:23;;;;;;;4.82;1.42;;;31.20;49.40;;;;;;6240909;28;20048;-80
2023/07/08 09:23:30;;;;;;;3.97;1.33;;;31.40;48.90;;;;;;6239369;28;20053;-80
2023/07/08 09:26:34;;;;;;;4.20;1.13;;;31.30;48.10;;;;;;6238965;28;20045;-80
2023/07/08 09:29:36;;;;;;;2.63;1.40;;;31.30;47.40;;;;;;6237088;28;20096;-80
2023/07/08 09:32:39;;;;;;;7.10;1.30;;;31.10;47.40;;;;;;6236666;28;20054;-80
2023/07/08 09:35:43;;;;;;;6.65;1.60;;;31.10;47.60;;;;;;6237887;28;20064;-80
2023/07/08 09:38:49;;;;;;;4.00;1.50;;;31.20;47.80;;;;;;6240550;28;20052;-83
2023/07/08 09:41:51;;;;;;;3.90;1.48;;;31.40;47.60;;;;;;6241706;28;20045;-83
2023/07/08 09:44:57;;;;;;;2.95;1.45;;;31.40;47.10;;;;;;6245591;28;20053;-80
2023/07/08 09:48:02;;;;;;;1.88;1.20;;;31.30;47.00;;;;;;6242065;28;20504;-81
2023/07/08 09:51:08;;;;;;;3.13;1.73;;;31.20;47.60;;;;;;6239465;28;20072;-80
2023/07/08 09:54:09;;;;;;;8.00;1.95;;;31.40;47.50;;;;;;6240576;28;20041;-83
2023/07/08 09:57:19;;;;;;;2.85;1.63;;;31.50;47.40;;;;;;6240714;28;20057;-78
2023/07/08 10:00:33;;;;;;;5.35;2.80;;;31.70;47.90;;;;;;6242510;28;20042;-78
2023/07/08 10:03:38;;;;;;;4.90;1.75;;;31.80;47.40;;;;;;6244235;28;20053;-78
2023/07/08 10:06:40;;;;;;;4.82;1.85;;;31.90;47.40;;;;;;6248301;28;20049;-82
2023/07/08 10:09:41;;;;;;;4.97;1.83;;;32.00;47.30;;;;;;6247952;28;20044;-82
2023/07/08 10:12:53;;;;;;;2.78;1.67;;;32.20;47.40;;;;;;6252484;28;20054;-79
2023/07/08 10:15:57;;;;;;;8.65;7.25;;;32.30;47.70;;;;;;6254614;28;20045;-83
2023/07/08 10:19:01;;;;;;;8.75;2.70;;;32.50;47.00;;;;;;6248204;28;20053;-83
2023/07/08 10:22:20;;;;;;;3.45;1.65;;;32.70;47.60;;;;;;6244692;28;20432;-82
2023/07/08 10:25:34;;;;;;;2.25;1.45;;;32.90;47.30;;;;;;6241477;28;20041;-83
2023/07/08 10:28:44;;;;;;;4.55;3.42;;;32.70;47.10;;;;;;6240352;28;20055;-81
2023/07/08 10:31:54;;;;;;;4.72;2.92;;;32.60;47.50;;;;;;6239188;28;20061;-82
2023/07/08 10:35:02;;;;;;;3.80;1.70;;;32.90;47.80;;;;;;6239413;28;20061;-79
2023/07/08 10:38:17;;;;;;;2.17;1.48;;;33.10;47.80;;;;;;6241746;28;20052;-80
2023/07/08 10:41:28;;;;;;;2.60;1.75;;;33.30;47.20;;;;;;6239142;28;20050;-83
2023/07/08 10:44:37;;;;;;;3.83;1.60;;;33.20;46.80;;;;;;6238867;28;20046;-80
2023/07/08 10:47:54;;;;;;;2.63;1.70;;;33.40;47.00;;;;;;6241933;28;20053;-82
2023/07/08 10:51:17;;;;;;;4.43;1.70;;;33.60;47.20;;;;;;6243647;28;20060;-81
2023/07/08 10:54:45;;;;;;;3.83;2.17;;;33.90;46.70;;;;;;6241885;28;20060;-83
2023/07/08 10:58:19;;;;;;;3.63;1.95;;;34.10;46.50;;;;;;6238548;28;20394;-82
2023/07/08 11:01:29;;;;;;;4.63;2.20;;;34.40;46.30;;;;;;6240562;28;20053;-80
2023/07/08 11:04:44;;;;;;;3.92;2.00;;;34.50;45.80;;;;;;6241744;28;20053;-80
2023/07/08 11:07:52;;;;;;;5.00;2.53;;;34.60;45.70;;;;;;6240262;28;20057;-78
2023/07/08 11:10:59;;;;;;;7.03;1.98;;;34.70;45.50;;;;;;6240715;28;20041;-81
2023/07/08 11:14:10;;;;;;;3.38;2.10;;;34.80;44.70;;;;;;6236148;28;20049;-81
2023/07/08 11:17:18;;;;;;;2.88;1.48;;;34.70;44.70;;;;;;6240057;28;20045;-83
2023/07/08 11:20:26;;;;;;;2.47;1.45;;;34.50;45.00;;;;;;6237596;28;20090;-82
2023/07/08 11:23:37;;;;;;;4.13;1.92;;;34.80;44.70;;;;;;6240758;28;20045;-81
2023/07/08 11:26:44;;;;;;;6.13;2.38;;;35.20;43.90;;;;;;6237850;28;20041;-82
2023/07/08 11:29:49;;;;;;;5.55;1.92;;;35.50;43.00;;;;;;6238871;28;20048;-81
2023/07/08 11:32:58;;;;;;;4.03;1.50;;;35.80;42.50;;;;;;6239795;28;20065;-81
2023/07/08 11:36:03;;;;;;;3.72;1.63;;;35.80;42.40;;;;;;6237304;28;20707;-82
2023/07/08 11:39:32;;;;;;;3.90;2.03;;;36.10;42.50;;;;;;6235827;28;20057;-80
2023/07/08 11:42:41;;;;;;;3.25;2.15;;;35.90;42.30;;;;;;6238904;28;20061;-78
2023/07/08 11:45:44;;;;;;;3.13;1.92;;;36.00;42.60;;;;;;6236176;28;20156;-81
2023/07/08 11:48:48;;;;;;;4.18;2.33;;;36.20;43.00;;;;;;6235329;28;20122;-81
2023/07/08 11:51:51;;;;;;;2.45;2.00;;;36.60;42.50;;;;;;6237733;28;20041;-81
2023/07/08 11:55:05;;;;;;;2.42;2.20;;;36.80;41.90;;;;;;6236924;28;20053;-81
2023/07/08 11:58:09;;;;;;;10.45;2.28;;;37.10;41.60;;;;;;6238278;28;20504;-81
2023/07/08 12:01:23;;;;;;;3.25;2.35;;;37.60;41.50;;;;;;6237364;28;20061;-77
2023/07/08 12:04:32;;;;;;;4.13;2.60;;;37.80;40.70;;;;;;6239944;28;20041;-80
2023/07/08 12:07:38;;;;;;;5.55;2.63;;;37.50;40.60;;;;;;6234188;28;20511;-81
2023/07/08 12:10:43;;;;;;;;;;;37.50;40.70;;;;;;6234905;28;20053;-81
2023/07/08 12:13:45;;;;;;;5.53;2.65;;;37.70;41.00;;;;;;6238977;28;20008;-78
2023/07/08 12:16:47;;;;;;;4.40;3.08;;;38.00;40.40;;;;;;6237251;28;20049;-80
2023/07/08 12:19:51;;;;;;;3.83;2.47;;;38.30;39.80;;;;;;6236297;28;20064;-82
2023/07/08 12:22:53;;;;;;;5.70;2.63;;;38.50;39.20;;;;;;6235602;28;20416;-81
2023/07/08 12:25:57;;;;;;;3.88;2.42;;;38.50;39.40;;;;;;6238533;28;20046;-82
2023/07/08 12:28:59;;;;;;;4.38;2.25;;;38.70;39.10;;;;;;6236644;28;20420;-80
2023/07/08 12:32:01;;;;;;;11.50;4.65;;;38.90;38.90;;;;;;6238629;28;20528;-81
2023/07/08 12:35:04;;;;;;;6.32;3.40;;;39.10;38.50;;;;;;6235158;28;20365;-81
2023/07/08 12:38:16;;;;;;;6.93;4.10;;;39.30;38.30;;;;;;6239581;28;20044;-78
2023/07/08 12:41:22;;;;;;;6.35;3.40;;;39.40;37.90;;;;;;6243965;28;20085;-81
2023/07/08 12:44:26;;;;;;;4.70;2.65;;;39.50;37.80;;;;;;6242162;28;20516;-82
2023/07/08 12:47:28;;;;;;;4.60;2.45;;;39.40;37.40;;;;;;6245490;28;20056;-82
2023/07/08 12:50:30;;;;;;;4.38;3.00;;;39.40;37.30;;;;;;6243769;28;20064;-82
2023/07/08 12:53:33;;;;;;;3.75;2.35;;;39.50;37.60;;;;;;6244264;28;20052;-81
2023/07/08 12:56:38;;;;;;;7.45;2.97;;;39.60;38.10;;;;;;6242306;28;20049;-81
2023/07/08 12:59:40;;;;;;;8.30;2.72;;;40.00;37.90;;;;;;6246170;28;20037;-83
2023/07/08 13:02:46;;;;;;;5.75;2.78;;;40.10;37.70;;;;;;6234857;28;20069;-81
2023/07/08 13:05:49;;;;;;;6.88;2.78;;;40.30;37.50;;;;;;6237093;28;20069;-80
2023/07/08 13:08:52;;;;;;;6.68;2.80;;;40.40;37.20;;;;;;6242448;28;20727;-82
2023/07/08 13:11:57;;;;;;;3.83;3.08;;;40.50;37.10;;;;;;6241352;28;20045;-79
2023/07/08 13:15:00;;;;;;;4.70;3.08;;;40.60;36.70;;;;;;6244289;28;20048;-80
2023/07/08 13:18:02;;;;;;;5.85;2.83;;;40.50;36.80;;;;;;6239788;28;20091;-79
2023/07/08 13:21:07;;;;;;;5.97;2.78;;;40.60;36.70;;;;;;6243924;28;20045;-81
2023/07/08 13:24:11;;;;;;;6.50;3.50;;;40.60;36.20;;;;;;6241816;28;20050;-79
2023/07/08 13:27:22;;;;;;;4.65;3.40;;;40.40;36.40;;;;;;6241687;28;20073;-80
2023/07/08 13:30:26;;;;;;;4.72;2.92;;;40.40;36.20;;;;;;6240699;28;20160;-82
2023/07/08 13:33:31;;;;;;;3.25;2.22;;;40.50;36.30;;;;;;6241123;28;20061;-81
2023/07/08 13:36:35;;;;;;;6.83;3.37;;;40.70;35.80;;;;;;6242231;28;20172;-80
2023/07/08 13:39:37;;;;;;;12.27;3.20;;;40.90;35.90;;;;;;6241240;28;20297;-82
2023/07/08 13:42:48;;;;;;;6.38;3.15;;;40.90;35.70;;;;;;6240967;28;20044;-82
2023/07/08 13:45:50;;;;;;;7.63;3.47;;;40.70;35.90;;;;;;6243405;28;20053;-79
2023/07/08 13:48:53;;;;;;;5.47;2.90;;;40.30;36.00;;;;;;6241806;28;20048;-78
2023/07/08 13:52:08;;;;;;;5.00;2.92;;;40.40;36.00;;;;;;6233213;28;20049;-80
2023/07/08 13:55:18;;;;;;;3.67;2.67;;;40.50;35.90;;;;;;6241317;28;20037;-80
2023/07/08 13:58:21;;;;;;;4.68;3.55;;;40.60;35.60;;;;;;6249744;28;20076;-82
2023/07/08 14:01:26;;;;;;;6.28;3.80;;;40.80;35.60;;;;;;6251036;28;20068;-80
2023/07/08 14:04:31;;;;;;;3.15;2.22;;;40.90;35.50;;;;;;6248068;28;20053;-80
2023/07/08 14:07:34;;;;;;;5.88;2.72;;;41.00;35.10;;;;;;6252594;28;20049;-76
2023/07/08 14:10:36;;;;;;;6.57;2.92;;;41.00;35.10;;;;;;6250015;28;20052;-80
2023/07/08 14:13:39;;;;;;;5.80;3.22;;;41.10;35.20;;;;;;6256338;28;20050;-78
2023/07/08 14:16:43;;;;;;;5.15;2.83;;;41.30;34.90;;;;;;6249331;28;20091;-77
2023/07/08 14:19:45;;;;;;;5.82;3.22;;;41.30;34.90;;;;;;6241756;28;20424;-81
2023/07/08 14:22:47;;;;;;;5.40;3.30;;;41.30;35.00;;;;;;6241112;28;20500;-82
2023/07/08 14:25:48;;;;;;;4.22;2.63;;;41.40;34.70;;;;;;6241030;28;20045;-78
2023/07/08 14:28:51;;;;;;;5.20;3.67;;;41.00;35.10;;;;;;6241365;28;20072;-79
2023/07/08 14:31:53;;;;;;;5.97;3.08;;;40.80;35.20;;;;;;6240298;28;20054;-81
2023/07/08 14:34:57;;;;;;;13.52;3.75;;;40.80;35.30;;;;;;6242031;28;20052;-80
2023/07/08 14:37:59;;;;;;;5.28;2.97;;;40.80;35.10;;;;;;6240362;28;20045;-82
2023/07/08 14:41:02;;;;;;;7.35;3.15;;;40.90;34.90;;;;;;6242111;28;20044;-83
2023/07/08 14:44:19;;;;;;;3.65;2.53;;;40.80;34.90;;;;;;6242374;28;20077;-79
2023/07/08 14:47:21;;;;;;;6.90;2.85;;;40.70;34.70;;;;;;6240652;28;20049;-83
2023/07/08 14:50:25;;;;;;;6.10;2.80;;;40.80;34.60;;;;;;6240947;28;20381;-81
2023/07/08 14:53:26;;;;;;;4.75;3.13;;;40.70;34.40;;;;;;6240289;28;20054;-83
2023/07/08 14:56:29;;;;;;;8.93;3.25;;;40.30;34.70;;;;;;6240439;28;20516;-81
2023/07/08 14:59:35;;;;;;;8.65;2.90;;;40.30;34.70;;;;;;6239514;28;20061;-81
2023/07/08 15:02:39;;;;;;;6.05;2.85;;;40.30;34.70;;;;;;6240731;28;20057;-82
2023/07/08 15:05:42;;;;;;;5.75;2.90;;;40.20;35.00;;;;;;6239846;28;20053;-83
2023/07/08 15:08:43;;;;;;;6.07;3.40;;;40.30;34.90;;;;;;6242225;28;20178;-80
2023/07/08 15:11:46;;;;;;;4.95;2.88;;;40.50;34.70;;;;;;6240044;28;20075;-83
2023/07/08 15:14:49;;;;;;;3.67;3.28;;;40.80;34.50;;;;;;6241973;28;20049;-83
2023/07/08 15:17:51;;;;;;;3.70;2.65;;;40.90;34.40;;;;;;6240758;28;20046;-81
2023/07/08 15:20:53;;;;;;;5.50;2.90;;;40.80;34.60;;;;;;6242251;28;20127;-80
2023/07/08 15:23:56;;;;;;;5.15;2.95;;;40.90;34.70;;;;;;6243891;28;20527;-80
2023/07/08 15:26:58;;;;;;;4.78;3.03;;;41.00;34.40;;;;;;6241057;28;20053;-79
2023/07/08 15:30:01;;;;;;;6.45;3.17;;;41.00;34.40;;;;;;6242387;28;20148;-82
2023/07/08 15:33:02;;;;;;;4.45;2.65;;;40.90;34.40;;;;;;6249528;28;20049;-82
2023/07/08 15:36:04;;;;;;;5.47;2.80;;;40.70;34.40;;;;;;6248693;28;20079;-81
2023/07/08 15:39:06;;;;;;;4.88;2.63;;;40.60;34.70;;;;;;6245515;28;20045;-82
2023/07/08 15:42:11;;;;;;;5.63;3.33;;;40.60;34.70;;;;;;6241496;28;20049;-82
2023/07/08 15:45:19;;;;;;;5.28;3.20;;;40.70;34.70;;;;;;6238139;28;20493;-78
2023/07/08 15:48:20;;;;;;;5.03;2.95;;;40.50;34.60;;;;;;6240286;28;20049;-80
2023/07/08 15:51:23;;;;;;;3.33;2.90;;;40.30;35.00;;;;;;6240213;28;20054;-78
2023/07/08 15:54:25;;;;;;;5.85;2.92;;;40.20;35.20;;;;;;6237585;28;20126;-79
2023/07/08 15:57:26;;;;;;;3.85;2.75;;;40.00;34.90;;;;;;6239539;28;20076;-79
2023/07/08 16:00:32;;;;;;;6.60;3.00;;;39.90;35.30;;;;;;6237369;28;20083;-80